Time;durP1;ratioP1;P1;durP2;ratioP2;P2;SDS_P1;SDS_P2;PMS_P1;PMS_P2;Temp;Humidity;BMP_temperature;BMP_pressure;BME280_temperature;BME280_humidity;BME280_pressure;Samples;Min_cycle;Max_cycle;Signal;HPM_P1;HPM_P2
2021/10/21 00:01:29;;;;;;;;;;;;;;;2.63;65.00;99162.06;5041604;28;19985;-74
2021/10/21 00:03:55;;;;;;;;;;;;;;;2.58;65.23;99161.41;5041117;28;19964;-75
2021/10/21 00:06:20;;;;;;;;;;;;;;;2.68;64.90;99172.38;5057471;28;19966;-76
2021/10/21 00:08:46;;;;;;;;;;;;;;;2.70;65.06;99177.56;5057776;28;19920;-75
2021/10/21 00:11:12;;;;;;;;;;;;;;;2.67;65.00;99182.06;5057719;28;20441;-74
2021/10/21 00:13:37;;;;;;;;;;;;;;;2.71;64.92;99172.22;5041105;28;19920;-74
2021/10/21 00:16:03;;;;;;;;;;;;;;;2.76;64.90;99185.19;5041165;28;20287;-74
2021/10/21 00:18:29;;;;;;;;;;;;;;;2.73;64.82;99174.75;5040865;28;20018;-74
2021/10/21 00:20:54;;;;;;;;;;;;;;;2.78;64.73;99178.00;5040487;28;19970;-75
2021/10/21 00:23:20;;;;;;;;;;;;;;;2.86;64.52;99182.00;5040773;28;20019;-75
2021/10/21 00:25:46;;;;;;;;;;;;;;;2.78;64.72;99185.94;5041430;28;19920;-74
2021/10/21 00:28:14;;;;;;;;;;;;;;;2.91;64.52;99192.31;5040682;28;19974;-74
2021/10/21 00:30:40;;;;;;;;;;;;;;;2.89;64.27;99196.81;5074113;28;19920;-75
2021/10/21 00:33:05;;;;;;;;;;;;;;;2.78;64.29;99197.34;5057129;28;20363;-74
2021/10/21 00:35:31;;;;;;;;;;;;;;;2.84;64.08;99188.28;5040519;28;20515;-74
2021/10/21 00:37:56;;;;;;;;;;;;;;;2.89;63.89;99191.53;5040215;28;19978;-74
2021/10/21 00:40:22;;;;;;;;;;;;;;;2.86;63.85;99200.47;5057245;28;19926;-75
2021/10/21 00:42:48;;;;;;;;;;;;;;;2.82;63.78;99206.84;5074952;28;19920;-74
2021/10/21 00:45:14;;;;;;;;;;;;;;;2.82;63.97;99198.03;5040766;28;19943;-75
2021/10/21 00:47:39;;;;;;;;;;;;;;;2.86;63.58;99210.19;5040577;28;19920;-75
2021/10/21 00:50:05;;;;;;;;;;;;;;;2.90;63.36;99209.09;5040582;28;19920;-76
2021/10/21 00:52:31;;;;;;;;;;;;;;;2.95;63.38;99217.63;5057211;28;19920;-75
2021/10/21 00:54:57;;;;;;;;;;;;;;;3.02;63.19;99226.94;5040295;28;20275;-75
2021/10/21 00:57:22;;;;;;;;;;;;;;;2.96;63.49;99234.31;5073365;28;19920;-74
2021/10/21 00:59:48;;;;;;;;;;;;;;;3.00;63.45;99236.72;5056642;28;19920;-74
2021/10/21 01:02:14;;;;;;;;;;;;;;;3.10;62.93;99239.75;5039978;28;19927;-75
2021/10/21 01:04:39;;;;;;;;;;;;;;;3.24;62.72;99241.69;5056510;28;19926;-75
2021/10/21 01:07:05;;;;;;;;;;;;;;;3.10;62.87;99239.75;5056677;28;19920;-75
2021/10/21 01:09:31;;;;;;;;;;;;;;;3.12;62.75;99236.09;5056910;28;19999;-74
2021/10/21 01:11:57;;;;;;;;;;;;;;;3.14;62.77;99233.38;5073346;28;19927;-74
2021/10/21 01:14:22;;;;;;;;;;;;;;;3.11;62.83;99244.94;5040040;28;19921;-74
2021/10/21 01:16:48;;;;;;;;;;;;;;;3.07;63.02;99251.31;5039791;28;19931;-75
2021/10/21 01:19:24;;;;;;;;;;;;;;;3.03;63.26;99246.28;5073501;28;20073;-77
2021/10/21 01:21:50;;;;;;;;;;;;;;;3.12;62.84;99251.06;5039513;28;19927;-76
2021/10/21 01:24:16;;;;;;;;;;;;;;;3.09;62.95;99252.09;5056470;28;19920;-73
2021/10/21 01:26:46;;;;;;;;;;;;;;;3.06;62.79;99257.53;5073258;28;20387;-74
2021/10/21 01:29:13;;;;;;;;;;;;;;;3.03;62.68;99256.84;5056268;28;20314;-76
2021/10/21 01:31:39;;;;;;;;;;;;;;;3.08;62.51;99252.16;5055787;28;20006;-76
2021/10/21 01:34:08;;;;;;;;;;;;;;;3.21;62.43;99268.25;5054934;28;19971;-76
2021/10/21 01:36:34;;;;;;;;;;;;;;;3.17;62.07;99267.56;5056024;28;19927;-75
2021/10/21 01:39:00;;;;;;;;;;;;;;;3.23;62.08;99264.59;5056020;28;19943;-75
2021/10/21 01:41:25;;;;;;;;;;;;;;;3.30;61.89;99265.13;5055835;28;19921;-76
2021/10/21 01:43:51;;;;;;;;;;;;;;;3.30;61.54;99265.13;5055780;28;19920;-76
2021/10/21 01:46:17;;;;;;;;;;;;;;;3.37;61.42;99270.03;5055808;28;19942;-76
2021/10/21 01:48:42;;;;;;;;;;;;;;;3.40;61.41;99274.31;5055691;28;19920;-76
2021/10/21 01:51:08;;;;;;;;;;;;;;;3.29;61.23;99274.00;5056008;28;19925;-75
2021/10/21 01:53:34;;;;;;;;;;;;;;;3.14;61.49;99275.63;5038999;28;20299;-74
2021/10/21 01:55:59;;;;;;;;;;;;;;;3.16;61.37;99269.34;5072161;28;19921;-75
2021/10/21 01:58:25;;;;;;;;;;;;;;;2.92;61.59;99274.06;5038933;28;20286;-74
2021/10/21 02:00:51;;;;;;;;;;;;;;;2.78;61.97;99273.03;5055671;28;20330;-76
2021/10/21 02:03:16;;;;;;;;;;;;;;;2.79;62.00;99269.50;5038589;28;19920;-76
2021/10/21 02:05:42;;;;;;;;;;;;;;;2.81;61.82;99272.91;5038946;28;20014;-77
2021/10/21 02:08:08;;;;;;;;;;;;;;;2.67;62.02;99277.09;5039084;28;19970;-77
2021/10/21 02:10:33;;;;;;;;;;;;;;;2.75;62.04;99278.50;5055439;28;20366;-75
2021/10/21 02:12:59;;;;;;;;;;;;;;;2.56;62.42;99279.38;5022254;28;19924;-76
2021/10/21 02:15:24;;;;;;;;;;;;;;;2.64;62.44;99282.50;5038751;28;20337;-78
2021/10/21 02:17:50;;;;;;;;;;;;;;;2.74;61.98;99284.69;5055316;28;19924;-77
2021/10/21 02:20:16;;;;;;;;;;;;;;;2.74;62.09;99277.63;5055326;28;19942;-77
2021/10/21 02:22:42;;;;;;;;;;;;;;;2.62;62.31;99278.22;5038621;28;19974;-77
2021/10/21 02:25:08;;;;;;;;;;;;;;;2.50;62.98;99290.22;5022295;28;19920;-78
2021/10/21 02:27:34;;;;;;;;;;;;;;;2.58;62.79;99295.97;5038767;28;19931;-76
2021/10/21 02:29:59;;;;;;;;;;;;;;;2.43;63.27;99299.34;5055170;28;19921;-76
2021/10/21 02:32:25;;;;;;;;;;;;;;;2.48;63.22;99297.34;5038106;28;20410;-75
2021/10/21 02:34:51;;;;;;;;;;;;;;;2.47;63.40;99300.91;5071750;28;20367;-76
2021/10/21 02:37:16;;;;;;;;;;;;;;;2.54;63.19;99298.84;5054940;28;19972;-76
2021/10/21 02:39:43;;;;;;;;;;;;;;;2.43;63.54;99299.34;5054944;28;19957;-74
2021/10/21 02:42:08;;;;;;;;;;;;;;;2.34;63.56;99300.66;5037834;28;19921;-76
2021/10/21 02:44:34;;;;;;;;;;;;;;;2.25;64.01;99303.72;5072702;28;19927;-76
2021/10/21 02:47:00;;;;;;;;;;;;;;;2.17;64.33;99295.31;5058798;28;19920;-75
2021/10/21 02:49:26;;;;;;;;;;;;;;;2.33;64.08;99298.94;5042207;28;19928;-75
2021/10/21 02:58:47;;;;;;;;;;;;;;;2.66;62.98;99301.75;5075240;28;19924;-76
2021/10/21 03:01:13;;;;;;;;;;;;;;;2.48;63.54;99307.91;5075010;28;20398;-76
2021/10/21 03:03:39;;;;;;;;;;;;;;;2.54;63.16;99304.13;5075257;28;19920;-74
2021/10/21 03:06:05;;;;;;;;;;;;;;;2.47;63.34;99300.91;5042129;28;20290;-76
2021/10/21 03:08:31;;;;;;;;;;;;;;;2.53;63.35;99313.84;5058843;28;20367;-77
2021/10/21 03:10:57;;;;;;;;;;;;;;;2.66;62.97;99317.56;5041989;28;20437;-75
2021/10/21 03:13:22;;;;;;;;;;;;;;;2.65;62.94;99310.59;5058479;28;20282;-76
2021/10/21 03:15:48;;;;;;;;;;;;;;;2.67;62.68;99314.03;5058287;28;19920;-77
2021/10/21 03:18:14;;;;;;;;;;;;;;;2.75;62.30;99316.28;5041603;28;19920;-76
2021/10/21 03:20:40;;;;;;;;;;;;;;;2.67;62.64;99314.03;5041830;28;19920;-78
2021/10/21 03:23:05;;;;;;;;;;;;;;;2.55;62.69;99325.16;5042373;28;19920;-76
2021/10/21 03:25:31;;;;;;;;;;;;;;;2.55;62.64;99327.78;5075221;28;20566;-77
2021/10/21 03:27:57;;;;;;;;;;;;;;;2.66;62.33;99328.13;5058361;28;19924;-80
2021/10/21 03:30:24;;;;;;;;;;;;;;;2.61;62.25;99334.56;5058445;28;19920;-76
2021/10/21 03:32:50;;;;;;;;;;;;;;;2.65;62.50;99333.50;5057873;28;20437;-76
2021/10/21 03:35:16;;;;;;;;;;;;;;;2.76;62.17;99340.91;5042153;28;20336;-76
2021/10/21 03:37:42;;;;;;;;;;;;;;;2.83;61.91;99342.31;5058320;28;19940;-78
2021/10/21 03:40:08;;;;;;;;;;;;;;;2.82;61.87;99343.22;5026406;28;20383;-75
2021/10/21 03:42:34;;;;;;;;;;;;;;;2.68;62.11;99352.69;5083461;28;19926;-77
2021/10/21 03:44:59;;;;;;;;;;;;;;;2.74;62.08;99353.31;5077648;28;19920;-77
2021/10/21 03:47:25;;;;;;;;;;;;;;;2.59;62.03;99353.09;5059464;28;19928;-77
2021/10/21 03:49:51;;;;;;;;;;;;;;;2.63;62.15;99357.34;5074244;28;19920;-78
2021/10/21 03:52:20;;;;;;;;;;;;;;;2.66;62.15;99349.25;5075765;28;19920;-75
2021/10/21 03:54:46;;;;;;;;;;;;;;;2.66;62.18;99354.53;5057222;28;19924;-80
2021/10/21 03:57:12;;;;;;;;;;;;;;;2.53;62.37;99350.78;5056362;28;19925;-76
2021/10/21 03:59:38;;;;;;;;;;;;;;;2.45;62.82;99359.97;5057255;28;19926;-77
2021/10/21 04:02:04;;;;;;;;;;;;;;;2.37;62.95;99353.28;5057332;28;20345;-76
2021/10/21 04:04:29;;;;;;;;;;;;;;;2.33;63.15;99359.63;5040803;28;20363;-76
2021/10/21 04:06:55;;;;;;;;;;;;;;;2.26;63.30;99365.22;5057388;28;20363;-76
2021/10/21 04:09:21;;;;;;;;;;;;;;;2.29;63.60;99365.94;5057432;28;19965;-76
2021/10/21 04:11:46;;;;;;;;;;;;;;;2.39;63.14;99372.50;5040546;28;19921;-75
2021/10/21 04:14:12;;;;;;;;;;;;;;;2.35;63.21;99370.94;5040609;28;19924;-75
2021/10/21 04:16:38;;;;;;;;;;;;;;;2.32;63.38;99371.06;5057016;28;19927;-74
2021/10/21 04:19:03;;;;;;;;;;;;;;;2.25;63.56;99374.06;5040498;28;20466;-75
2021/10/21 04:21:29;;;;;;;;;;;;;;;2.28;63.60;99364.22;5039952;28;19969;-76
2021/10/21 04:23:55;;;;;;;;;;;;;;;2.30;63.40;99358.91;5072656;28;19928;-77
2021/10/21 04:26:21;;;;;;;;;;;;;;;2.57;62.75;99352.34;5039860;28;20387;-76
2021/10/21 04:28:47;;;;;;;;;;;;;;;2.75;62.34;99355.03;5056393;28;19981;-76
2021/10/21 04:31:13;;;;;;;;;;;;;;;2.71;62.03;99350.81;5039735;28;19920;-75
2021/10/21 04:33:38;;;;;;;;;;;;;;;2.87;61.84;99370.28;5056380;28;19928;-78
2021/10/21 04:36:05;;;;;;;;;;;;;;;2.87;61.68;99362.38;5056605;28;20310;-76
2021/10/21 04:38:30;;;;;;;;;;;;;;;2.86;61.83;99364.16;5039209;28;19920;-74
2021/10/21 04:40:56;;;;;;;;;;;;;;;3.04;61.76;99370.31;5055964;28;19997;-77
2021/10/21 04:43:22;;;;;;;;;;;;;;;3.08;60.91;99365.72;5039193;28;20034;-80
2021/10/21 04:45:48;;;;;;;;;;;;;;;2.94;61.29;99373.50;5039462;28;20047;-77
2021/10/21 04:48:14;;;;;;;;;;;;;;;2.99;61.46;99372.31;5039188;28;19974;-75
2021/10/21 04:50:39;;;;;;;;;;;;;;;3.08;60.99;99382.44;5039555;28;20370;-78
2021/10/21 04:53:05;;;;;;;;;;;;;;;3.01;61.12;99381.03;5056563;28;20341;-76
2021/10/21 04:55:35;;;;;;;;;;;;;;;3.03;61.06;99373.88;5056156;28;19993;-75
2021/10/21 04:58:02;;;;;;;;;;;;;;;3.07;61.10;99374.59;5057040;28;19920;-76
2021/10/21 05:00:27;;;;;;;;;;;;;;;3.23;60.84;99374.69;5056601;28;19973;-77
2021/10/21 05:02:53;;;;;;;;;;;;;;;3.31;60.48;99383.97;5039870;28;19920;-77
2021/10/21 05:05:19;;;;;;;;;;;;;;;3.48;60.16;99383.09;5073207;28;19920;-76
2021/10/21 05:07:45;;;;;;;;;;;;;;;3.41;59.79;99384.34;5055324;28;19927;-76
2021/10/21 05:10:11;;;;;;;;;;;;;;;3.34;59.93;99383.78;5072892;28;19927;-75
2021/10/21 05:12:37;;;;;;;;;;;;;;;3.33;60.07;99387.38;5056073;28;19927;-75
2021/10/21 05:15:03;;;;;;;;;;;;;;;3.17;60.12;99397.84;5071311;28;19928;-75
2021/10/21 05:17:29;;;;;;;;;;;;;;;3.43;59.97;99387.78;5071045;28;20326;-76
2021/10/21 05:19:55;;;;;;;;;;;;;;;3.46;59.45;99387.63;5054755;28;19920;-75
2021/10/21 05:22:21;;;;;;;;;;;;;;;3.25;59.68;99400.09;5054602;28;20399;-76
2021/10/21 05:24:47;;;;;;;;;;;;;;;3.28;59.81;99384.09;5071514;28;19920;-75
2021/10/21 05:27:13;;;;;;;;;;;;;;;3.31;59.77;99393.66;5070884;28;19932;-74
2021/10/21 05:29:38;;;;;;;;;;;;;;;3.30;59.69;99387.50;5038467;28;20383;-76
2021/10/21 05:32:07;;;;;;;;;;;;;;;3.37;59.84;99396.00;5056238;28;19925;-74
2021/10/21 05:34:33;;;;;;;;;;;;;;;3.39;59.43;99386.22;5056496;28;19921;-76
2021/10/21 05:36:59;;;;;;;;;;;;;;;3.33;59.55;99375.94;5072577;28;19955;-76
2021/10/21 05:39:25;;;;;;;;;;;;;;;3.26;59.92;99385.97;5055904;28;20326;-75
2021/10/21 05:41:50;;;;;;;;;;;;;;;3.25;60.26;99384.25;5073885;28;19920;-75
2021/10/21 05:44:16;;;;;;;;;;;;;;;3.37;60.15;99380.16;5055774;28;19920;-74
2021/10/21 05:46:42;;;;;;;;;;;;;;;3.39;60.04;99394.16;5056065;28;20019;-76
2021/10/21 05:49:08;;;;;;;;;;;;;;;3.65;59.87;99376.97;5055676;28;19920;-75
2021/10/21 05:51:34;;;;;;;;;;;;;;;3.90;59.43;99376.53;5039180;28;19920;-76
2021/10/21 05:53:59;;;;;;;;;;;;;;;4.04;58.58;99379.31;5041132;28;19920;-75
2021/10/21 05:56:25;;;;;;;;;;;;;;;4.08;58.37;99383.50;5058313;28;19928;-75
2021/10/21 05:58:51;;;;;;;;;;;;;;;4.00;58.13;99372.50;5073941;28;19921;-76
2021/10/21 06:01:17;;;;;;;;;;;;;;;4.25;58.08;99366.75;5074802;28;19928;-75
2021/10/21 06:03:42;;;;;;;;;;;;;;;4.23;57.09;99375.72;5072646;28;19928;-76
2021/10/21 06:06:08;;;;;;;;;;;;;;;3.96;56.36;99381.53;5072183;28;19920;-75
2021/10/21 06:08:34;;;;;;;;;;;;;;;4.03;55.80;99361.75;5055476;28;20363;-76
2021/10/21 06:11:04;;;;;;;;;;;;;;;4.09;55.52;99361.41;5038830;28;20264;-76
2021/10/21 06:13:31;;;;;;;;;;;;;;;4.12;55.11;99366.53;5039676;28;19920;-75
2021/10/21 06:15:57;;;;;;;;;;;;;;;4.02;53.61;99369.75;5055294;28;19952;-75
2021/10/21 06:18:23;;;;;;;;;;;;;;;3.94;53.46;99370.16;5055368;28;20406;-75
2021/10/21 06:20:48;;;;;;;;;;;;;;;3.92;53.95;99374.69;5054887;28;19989;-75
2021/10/21 06:23:14;;;;;;;;;;;;;;;4.05;54.33;99366.94;5038561;28;19928;-75
2021/10/21 06:25:40;;;;;;;;;;;;;;;4.17;53.83;99363.66;5055201;28;19927;-77
2021/10/21 06:28:05;;;;;;;;;;;;;;;4.48;53.89;99356.72;5055432;28;19932;-77
2021/10/21 06:30:31;;;;;;;;;;;;;;;4.59;52.29;99355.19;5055289;28;19920;-75
2021/10/21 06:32:57;;;;;;;;;;;;;;;4.92;52.16;99351.56;5060248;28;20240;-76
2021/10/21 06:35:23;;;;;;;;;;;;;;;5.01;51.09;99345.75;5089685;28;19931;-76
2021/10/21 06:37:49;;;;;;;;;;;;;;;5.01;50.26;99340.47;5063650;28;19927;-76
2021/10/21 06:40:15;;;;;;;;;;;;;;;5.00;51.04;99349.38;5058227;28;19920;-76
2021/10/21 06:42:41;;;;;;;;;;;;;;;5.19;51.02;99342.97;5075463;28;19920;-77
2021/10/21 06:45:07;;;;;;;;;;;;;;;5.23;50.59;99341.88;5058266;28;20394;-77
2021/10/21 06:47:36;;;;;;;;;;;;;;;4.81;51.19;99343.38;5075217;28;20382;-76
2021/10/21 06:50:02;;;;;;;;;;;;;;;4.83;51.17;99342.34;5058838;28;19929;-75
2021/10/21 06:52:28;;;;;;;;;;;;;;;4.92;50.28;99340.13;5091872;28;20340;-77
2021/10/21 06:54:54;;;;;;;;;;;;;;;5.14;49.12;99340.59;5107434;28;19920;-75
2021/10/21 06:57:20;;;;;;;;;;;;;;;5.43;49.78;99335.41;5066264;28;19928;-81
2021/10/21 06:59:46;;;;;;;;;;;;;;;6.00;49.32;99324.91;5057827;28;20016;-75
2021/10/21 07:02:12;;;;;;;;;;;;;;;6.29;48.95;99331.06;5042467;28;19919;-77
2021/10/21 07:04:38;;;;;;;;;;;;;;;6.40;48.51;99330.41;5086189;28;19919;-75
2021/10/21 07:07:04;;;;;;;;;;;;;;;6.29;46.94;99333.72;5113206;28;19946;-74
2021/10/21 07:09:30;;;;;;;;;;;;;;;5.94;47.07;99338.53;5077308;28;19962;-74
2021/10/21 07:11:55;;;;;;;;;;;;;;;5.68;46.12;99333.00;5082799;28;19920;-76
2021/10/21 07:14:21;;;;;;;;;;;;;;;5.38;47.05;99326.84;5088654;28;19926;-75
2021/10/21 07:16:47;;;;;;;;;;;;;;;5.40;47.72;99322.31;5078215;28;19919;-85
2021/10/21 07:19:13;;;;;;;;;;;;;;;5.46;47.86;99332.59;5078000;28;19924;-76
2021/10/21 07:21:39;;;;;;;;;;;;;;;5.54;48.11;99317.91;5113078;28;19919;-75
2021/10/21 07:24:05;;;;;;;;;;;;;;;5.85;47.78;99316.06;5077078;28;20337;-76
2021/10/21 07:26:31;;;;;;;;;;;;;;;6.15;46.80;99323.13;5078531;28;19931;-76
2021/10/21 07:28:56;;;;;;;;;;;;;;;6.33;46.64;99311.34;5094971;28;19920;-75
2021/10/21 07:31:23;;;;;;;;;;;;;;;6.53;46.59;99312.72;5095704;28;20025;-75
2021/10/21 07:33:48;;;;;;;;;;;;;;;6.56;45.85;99316.03;5081963;28;19934;-75
2021/10/21 07:36:14;;;;;;;;;;;;;;;6.49;46.22;99328.00;5098521;28;19919;-76
2021/10/21 07:38:40;;;;;;;;;;;;;;;6.39;45.99;99313.59;5097511;28;20428;-76
2021/10/21 07:41:06;;;;;;;;;;;;;;;6.49;46.59;99314.72;5082097;28;20401;-75
2021/10/21 07:43:35;;;;;;;;;;;;;;;6.32;46.39;99313.16;5098549;28;19939;-76
2021/10/21 07:46:01;;;;;;;;;;;;;;;6.28;46.74;99308.09;5115466;28;19923;-75
2021/10/21 07:48:26;;;;;;;;;;;;;;;6.41;46.57;99309.06;5106145;28;20067;-75
2021/10/21 07:50:52;;;;;;;;;;;;;;;6.43;45.49;99304.50;5058938;28;19924;-78
2021/10/21 07:53:18;;;;;;;;;;;;;;;6.60;46.41;99302.56;5044221;28;19923;-76
2021/10/21 07:55:44;;;;;;;;;;;;;;;6.78;45.70;99301.38;5041773;28;20432;-75
2021/10/21 07:58:10;;;;;;;;;;;;;;;6.82;45.37;99297.56;5057526;28;19920;-78
2021/10/21 08:00:35;;;;;;;;;;;;;;;6.51;44.99;99296.91;5057704;28;19920;-75
2021/10/21 08:03:01;;;;;;;;;;;;;;;6.26;46.12;99291.44;5040615;28;20013;-76
2021/10/21 08:05:27;;;;;;;;;;;;;;;6.17;45.53;99297.31;5057220;28;19927;-76
2021/10/21 08:07:54;;;;;;;;;;;;;;;6.02;45.42;99297.34;5056738;28;19921;-76
2021/10/21 08:10:19;;;;;;;;;;;;;;;6.04;45.41;99292.78;5056948;28;19951;-79
2021/10/21 08:12:46;;;;;;;;;;;;;;;6.49;45.46;99280.19;5024166;28;19958;-74
2021/10/21 08:15:12;;;;;;;;;;;;;;;6.44;45.10;99284.13;5040073;28;20383;-76
2021/10/21 08:17:39;;;;;;;;;;;;;;;6.30;45.01;99271.72;5056960;28;19920;-76
2021/10/21 08:20:05;;;;;;;;;;;;;;;6.26;44.84;99262.25;5056990;28;20310;-76
2021/10/21 08:22:32;;;;;;;;;;;;;;;6.33;43.75;99276.84;5039610;28;19934;-76
2021/10/21 08:24:58;;;;;;;;;;;;;;;6.41;43.09;99269.22;5040076;28;19920;-79
2021/10/21 08:27:23;;;;;;;;;;;;;;;6.28;42.67;99257.69;5040519;28;19925;-75
2021/10/21 08:29:50;;;;;;;;;;;;;;;6.41;43.68;99252.44;5073658;28;19973;-75
2021/10/21 08:32:16;;;;;;;;;;;;;;;6.52;42.44;99253.47;5039974;28;20359;-75
2021/10/21 08:34:41;;;;;;;;;;;;;;;6.70;42.45;99255.88;5056884;28;19920;-79
2021/10/21 08:37:08;;;;;;;;;;;;;;;6.85;39.44;99260.19;5072344;28;19920;-76
2021/10/21 08:39:35;;;;;;;;;;;;;;;6.69;38.77;99252.34;5073900;28;19966;-75
2021/10/21 08:42:02;;;;;;;;;;;;;;;6.42;38.80;99252.34;5040296;28;19920;-78
2021/10/21 08:44:27;;;;;;;;;;;;;;;6.65;39.29;99244.69;5040041;28;19920;-76
2021/10/21 08:46:54;;;;;;;;;;;;;;;6.52;38.27;99242.84;5023419;28;20019;-76
2021/10/21 08:49:19;;;;;;;;;;;;;;;6.50;38.65;99227.94;5056249;28;19985;-76
2021/10/21 08:51:46;;;;;;;;;;;;;;;6.74;39.47;99221.03;5038921;28;20450;-76
2021/10/21 08:54:11;;;;;;;;;;;;;;;6.78;37.71;99243.78;5056918;28;19920;-76
2021/10/21 08:56:37;;;;;;;;;;;;;;;6.62;39.03;99226.28;5056317;28;19920;-76
2021/10/21 08:59:04;;;;;;;;;;;;;;;6.68;39.15;99237.38;5039377;28;19926;-74
2021/10/21 09:09:22;;;;;;;;;;;;;;;6.53;38.98;99206.50;5077724;28;19963;-75
2021/10/21 09:12:08;;;;;;;;;;;;;;;6.91;38.28;99201.28;5113683;28;19927;-75
2021/10/21 09:14:35;;;;;;;;;;;;;;;7.04;37.86;99202.19;5063232;28;20014;-74
2021/10/21 09:17:01;;;;;;;;;;;;;;;7.12;38.02;99216.78;5114035;28;19946;-79
2021/10/21 09:19:27;;;;;;;;;;;;;;;7.00;37.91;99206.00;5080128;28;20011;-75
2021/10/21 09:21:53;;;;;;;;;;;;;;;6.91;38.65;99206.63;5095781;28;19923;-75
2021/10/21 09:24:31;;;;;;;;;;;;;;;6.87;38.84;99202.47;5079192;28;19919;-74
2021/10/21 09:26:57;;;;;;;;;;;;;;;6.62;39.68;99197.94;5114028;28;19978;-74
2021/10/21 09:29:23;;;;;;;;;;;;;;;6.78;40.38;99197.78;5079408;28;20289;-75
2021/10/21 09:31:52;;;;;;;;;;;;;;;7.09;39.79;99198.38;5079534;28;19967;-77
2021/10/21 09:34:21;;;;;;;;;;;;;;;6.89;39.87;99205.88;5079720;28;20003;-75
2021/10/21 09:36:48;;;;;;;;;;;;;;;6.69;40.75;99195.72;5078467;28;20022;-75
2021/10/21 09:39:13;;;;;;;;;;;;;;;6.52;40.78;99210.97;5062176;28;19919;-76
2021/10/21 09:41:39;;;;;;;;;;;;;;;6.35;41.11;99211.19;5112821;28;19927;-76
2021/10/21 09:44:23;;;;;;;;;;;;;;;6.24;41.58;99200.44;5095702;28;19920;-75
2021/10/21 09:46:49;;;;;;;;;;;;;;;6.63;40.96;99202.31;5078503;28;19959;-78
2021/10/21 09:49:16;;;;;;;;;;;;;;;6.49;40.06;99203.19;5062185;28;19969;-80
2021/10/21 09:51:43;;;;;;;;;;;;;;;6.49;40.76;99211.16;5061512;28;19919;-76
2021/10/21 09:54:08;;;;;;;;;;;;;;;6.22;40.54;99202.34;5112960;28;19931;-77
2021/10/21 09:56:52;;;;;;;;;;;;;;;6.10;41.71;99195.19;5105487;28;20353;-78
2021/10/21 09:59:23;;;;;;;;;;;;;;;6.31;40.76;99196.44;5069298;28;19920;-77
2021/10/21 10:01:49;;;;;;;;;;;;;;;6.57;40.83;99192.06;5051718;28;20409;-76
2021/10/21 10:04:14;;;;;;;;;;;;;;;6.81;40.66;99179.81;5073008;28;19920;-80
2021/10/21 10:06:40;;;;;;;;;;;;;;;7.04;39.82;99180.06;5037898;28;19920;-77
2021/10/21 10:09:06;;;;;;;;;;;;;;;6.86;39.53;99182.16;5071444;28;19920;-76
2021/10/21 10:11:37;;;;;;;;;;;;;;;6.78;39.56;99177.38;5072024;28;20298;-77
2021/10/21 10:14:03;;;;;;;;;;;;;;;6.95;39.91;99164.75;5099234;28;19930;-78
2021/10/21 10:16:28;;;;;;;;;;;;;;;8.09;50.84;99165.63;5041799;28;19919;-78
2021/10/21 10:18:54;;;;;;;;;;;;;;;9.38;54.71;99176.31;5074474;28;20475;-76
2021/10/21 10:21:30;;;;;;;;;;;;;;;9.59;37.86;99163.13;5057796;28;19965;-78
2021/10/21 10:24:02;;;;;;;;;;;;;;;9.28;36.60;99159.31;5059265;28;19927;-76
2021/10/21 10:26:43;;;;;;;;;;;;;;;8.95;35.72;99152.97;5091929;28;19930;-76
2021/10/21 10:29:10;;;;;;;;;;;;;;;8.58;36.63;99143.38;5086053;28;20018;-77
2021/10/21 10:31:36;;;;;;;;;;;;;;;8.23;37.75;99144.13;5078008;28;19927;-76
2021/10/21 10:34:02;;;;;;;;;;;;;;;8.14;36.90;99147.50;5063530;28;20405;-77
2021/10/21 10:36:28;;;;;;;;;;;;;;;8.20;36.81;99149.72;5093189;28;19958;-75
2021/10/21 10:39:06;;;;;;;;;;;;;;;8.03;36.87;99138.47;5111603;28;19951;-76
2021/10/21 10:41:42;;;;;;;;;;;;;;;7.84;37.06;99146.09;5078205;28;19927;-76
2021/10/21 10:44:11;;;;;;;;;;;;;;;7.38;37.44;99140.53;5094883;28;19927;-79
2021/10/21 10:46:46;;;;;;;;;;;;;;;7.43;38.24;99128.59;5077817;28;19923;-79
2021/10/21 10:49:32;;;;;;;;;;;;;;;7.54;38.13;99126.03;5078265;28;19920;-78
2021/10/21 10:51:58;;;;;;;;;;;;;;;7.42;38.07;99131.38;5112212;28;19926;-77
2021/10/21 10:54:43;;;;;;;;;;;;;;;7.25;37.78;99119.25;5077932;28;19920;-79
2021/10/21 10:57:30;;;;;;;;;;;;;;;7.04;38.08;99127.78;5112543;28;20344;-78
2021/10/21 10:59:56;;;;;;;;;;;;;;;6.72;39.17;99115.81;5095673;28;19942;-78
2021/10/21 11:02:25;;;;;;;;;;;;;;;6.70;39.41;99115.09;5113119;28;20370;-80
2021/10/21 11:04:51;;;;;;;;;;;;;;;6.53;39.43;99125.03;5078460;28;19926;-80
2021/10/21 11:07:18;;;;;;;;;;;;;;;6.44;40.08;99107.06;5083567;28;20345;-75
2021/10/21 11:09:44;;;;;;;;;;;;;;;6.48;40.49;99108.56;5116167;28;19919;-77
2021/10/21 11:12:13;;;;;;;;;;;;;;;6.50;40.38;99104.00;5081843;28;19920;-77
2021/10/21 11:14:43;;;;;;;;;;;;;;;6.46;40.26;99105.16;5081811;28;19962;-78
2021/10/21 11:17:09;;;;;;;;;;;;;;;6.46;40.70;99099.00;5099544;28;19955;-78
2021/10/21 11:19:45;;;;;;;;;;;;;;;6.56;40.52;99098.28;5115655;28;19927;-77
2021/10/21 11:22:11;;;;;;;;;;;;;;;6.39;40.75;99093.22;5098597;28;19926;-77
2021/10/21 11:24:53;;;;;;;;;;;;;;;6.28;41.32;99096.63;5081687;28;19919;-77
2021/10/21 11:27:39;;;;;;;;;;;;;;;6.23;41.40;99087.25;5098565;28;20020;-80
2021/10/21 11:30:16;;;;;;;;;;;;;;;6.02;42.40;99090.38;5098341;28;19945;-78
2021/10/21 11:32:42;;;;;;;;;;;;;;;5.93;42.64;99080.34;5065243;28;19926;-78
2021/10/21 11:35:17;;;;;;;;;;;;;;;5.95;42.67;99073.16;5082058;28;20286;-77
2021/10/21 11:37:45;;;;;;;;;;;;;;;5.88;43.04;99071.81;5061617;28;20018;-78
2021/10/21 11:40:12;;;;;;;;;;;;;;;5.82;43.54;99077.50;5072608;28;19928;-79
2021/10/21 11:42:41;;;;;;;;;;;;;;;5.81;43.41;99054.59;5115438;28;19959;-83
2021/10/21 11:45:08;;;;;;;;;;;;;;;5.73;43.63;99062.22;5116789;28;20306;-79
2021/10/21 11:47:35;;;;;;;;;;;;;;;5.81;43.68;99054.59;5081556;28;20377;-78
2021/10/21 11:50:01;;;;;;;;;;;;;;;5.66;44.08;99048.50;5098481;28;19995;-79
2021/10/21 11:52:38;;;;;;;;;;;;;;;5.63;44.25;99045.19;5065275;28;19967;-78
2021/10/21 11:55:04;;;;;;;;;;;;;;;5.60;44.30;99033.84;5081180;28;19919;-79
2021/10/21 11:57:31;;;;;;;;;;;;;;;5.60;44.70;99032.97;5081193;28;20374;-79
2021/10/21 11:59:57;;;;;;;;;;;;;;;5.61;44.54;99034.69;5098390;28;19926;-79
2021/10/21 12:02:26;;;;;;;;;;;;;;;5.55;44.87;99022.66;5081316;28;19924;-80
2021/10/21 12:04:52;;;;;;;;;;;;;;;5.58;44.91;99025.13;5098236;28;19991;-80
2021/10/21 12:07:18;;;;;;;;;;;;;;;5.58;44.84;99021.63;5081039;28;20413;-78
2021/10/21 12:09:44;;;;;;;;;;;;;;;5.58;44.93;99027.78;5098749;28;20441;-77
2021/10/21 12:12:15;;;;;;;;;;;;;;;5.43;45.36;99012.00;5098371;28;19931;-78
2021/10/21 12:14:41;;;;;;;;;;;;;;;5.46;45.41;99012.66;5082497;28;19926;-78
2021/10/21 12:17:07;;;;;;;;;;;;;;;5.49;45.49;99011.59;5114260;28;20010;-78
2021/10/21 12:19:33;;;;;;;;;;;;;;;5.47;45.72;99001.09;5097787;28;19976;-79
2021/10/21 12:22:14;;;;;;;;;;;;;;;5.56;45.74;99000.50;5080484;28;19919;-78
2021/10/21 12:24:42;;;;;;;;;;;;;;;5.47;45.85;98990.50;5098646;28;19925;-79
2021/10/21 12:27:07;;;;;;;;;;;;;;;5.46;45.94;98986.16;5080206;28;19966;-77
2021/10/21 12:29:43;;;;;;;;;;;;;;;5.45;46.00;98983.59;5097355;28;19958;-78
2021/10/21 12:32:18;;;;;;;;;;;;;;;5.41;45.97;98984.75;5081498;28;19923;-79
2021/10/21 12:34:45;;;;;;;;;;;;;;;5.39;46.34;98984.84;5098055;28;19927;-79
2021/10/21 12:37:14;;;;;;;;;;;;;;;5.50;46.01;98981.50;5080517;28;19960;-81
2021/10/21 12:39:40;;;;;;;;;;;;;;;5.48;46.08;98968.34;5115625;28;19926;-78
2021/10/21 12:42:07;;;;;;;;;;;;;;;5.44;46.01;98972.13;5080388;28;19920;-78
2021/10/21 12:44:37;;;;;;;;;;;;;;;5.47;46.01;98974.59;5079688;28;19924;-78
2021/10/21 12:47:07;;;;;;;;;;;;;;;5.41;46.37;98972.31;5096295;28;19943;-76
2021/10/21 12:49:33;;;;;;;;;;;;;;;5.31;46.54;98971.25;5079663;28;20038;-77
2021/10/21 12:52:09;;;;;;;;;;;;;;;5.27;46.68;98969.75;5080032;28;19942;-79
2021/10/21 12:54:36;;;;;;;;;;;;;;;5.25;46.89;98976.94;5113613;28;20374;-78
2021/10/21 12:57:02;;;;;;;;;;;;;;;5.20;47.53;98963.13;5095992;28;20380;-76
2021/10/21 12:59:31;;;;;;;;;;;;;;;5.21;47.58;98959.53;5079038;28;19920;-77
2021/10/21 13:01:58;;;;;;;;;;;;;;;5.21;47.50;98960.38;5079316;28;20018;-86
2021/10/21 13:04:38;;;;;;;;;;;;;;;5.25;47.73;98950.44;5096391;28;20281;-77
2021/10/21 13:07:04;;;;;;;;;;;;;;;5.35;48.04;98951.53;5096321;28;19968;-76
2021/10/21 13:09:31;;;;;;;;;;;;;;;5.36;48.09;98953.22;5111420;28;20009;-77
2021/10/21 13:11:57;;;;;;;;;;;;;;;5.30;48.75;98940.38;5078941;28;20000;-77